sensor_id;sensor_type;location;lat;lon;timestamp;P1;durP1;ratioP1;P2;durP2;ratioP2
483;SDS011;228;48.922;12.198;2023-06-22T04:00:40;15.80;;;11.65;;
483;SDS011;228;48.922;12.198;2023-06-22T04:03:06;16.42;;;12.38;;
483;SDS011;228;48.922;12.198;2023-06-22T04:05:32;15.73;;;13.02;;
483;SDS011;228;48.922;12.198;2023-06-22T04:07:58;16.75;;;12.32;;
483;SDS011;228;48.922;12.198;2023-06-22T04:10:24;18.33;;;13.38;;
483;SDS011;228;48.922;12.198;2023-06-22T04:12:50;17.63;;;13.63;;
483;SDS011;228;48.922;12.198;2023-06-22T04:15:17;19.90;;;12.77;;
483;SDS011;228;48.922;12.198;2023-06-22T04:17:43;18.45;;;12.55;;
483;SDS011;228;48.922;12.198;2023-06-22T04:20:09;13.85;;;11.90;;
483;SDS011;228;48.922;12.198;2023-06-22T04:22:35;16.00;;;12.18;;
483;SDS011;228;48.922;12.198;2023-06-22T04:25:01;16.30;;;12.40;;
483;SDS011;228;48.922;12.198;2023-06-22T04:27:27;15.43;;;11.88;;
483;SDS011;228;48.922;12.198;2023-06-22T04:29:53;19.55;;;12.75;;
483;SDS011;228;48.922;12.198;2023-06-22T04:32:19;18.17;;;13.40;;
483;SDS011;228;48.922;12.198;2023-06-22T04:34:45;17.23;;;13.52;;
483;SDS011;228;48.922;12.198;2023-06-22T04:37:12;15.98;;;13.65;;
483;SDS011;228;48.922;12.198;2023-06-22T04:39:41;18.33;;;13.75;;
483;SDS011;228;48.922;12.198;2023-06-22T04:42:08;17.27;;;13.95;;
483;SDS011;228;48.922;12.198;2023-06-22T04:44:34;15.68;;;12.27;;
483;SDS011;228;48.922;12.198;2023-06-22T04:47:01;18.98;;;13.85;;
483;SDS011;228;48.922;12.198;2023-06-22T04:49:29;17.13;;;13.27;;
483;SDS011;228;48.922;12.198;2023-06-22T04:52:01;15.25;;;12.98;;
483;SDS011;228;48.922;12.198;2023-06-22T04:54:32;17.98;;;13.45;;
483;SDS011;228;48.922;12.198;2023-06-22T04:57:06;17.30;;;13.10;;
483;SDS011;228;48.922;12.198;2023-06-22T04:59:35;16.60;;;13.13;;
483;SDS011;228;48.922;12.198;2023-06-22T05:02:04;16.75;;;12.95;;
483;SDS011;228;48.922;12.198;2023-06-22T05:04:31;16.92;;;13.23;;
483;SDS011;228;48.922;12.198;2023-06-22T05:06:57;15.18;;;12.95;;
483;SDS011;228;48.922;12.198;2023-06-22T05:09:25;16.85;;;12.75;;
483;SDS011;228;48.922;12.198;2023-06-22T05:11:51;15.57;;;12.32;;
483;SDS011;228;48.922;12.198;2023-06-22T05:14:18;15.57;;;13.38;;
483;SDS011;228;48.922;12.198;2023-06-22T05:16:44;15.02;;;12.45;;
483;SDS011;228;48.922;12.198;2023-06-22T05:19:11;15.98;;;13.02;;
483;SDS011;228;48.922;12.198;2023-06-22T05:21:40;18.30;;;12.65;;
483;SDS011;228;48.922;12.198;2023-06-22T05:24:06;18.23;;;13.55;;
483;SDS011;228;48.922;12.198;2023-06-22T05:26:33;16.52;;;12.30;;
483;SDS011;228;48.922;12.198;2023-06-22T05:29:00;16.30;;;12.52;;
483;SDS011;228;48.922;12.198;2023-06-22T05:31:27;13.80;;;11.90;;
483;SDS011;228;48.922;12.198;2023-06-22T05:33:54;14.75;;;11.98;;
483;SDS011;228;48.922;12.198;2023-06-22T05:36:21;14.38;;;12.65;;
483;SDS011;228;48.922;12.198;2023-06-22T05:38:50;14.25;;;11.73;;
483;SDS011;228;48.922;12.198;2023-06-22T05:41:17;14.57;;;11.70;;
483;SDS011;228;48.922;12.198;2023-06-22T05:43:44;13.60;;;10.57;;
483;SDS011;228;48.922;12.198;2023-06-22T05:46:10;11.85;;;10.60;;
483;SDS011;228;48.922;12.198;2023-06-22T05:48:36;13.68;;;10.95;;
483;SDS011;228;48.922;12.198;2023-06-22T05:51:02;14.23;;;9.95;;
483;SDS011;228;48.922;12.198;2023-06-22T05:53:28;12.80;;;9.90;;
483;SDS011;228;48.922;12.198;2023-06-22T05:55:54;14.98;;;10.45;;
483;SDS011;228;48.922;12.198;2023-06-22T05:58:20;11.18;;;10.05;;
483;SDS011;228;48.922;12.198;2023-06-22T06:00:46;13.30;;;9.98;;
483;SDS011;228;48.922;12.198;2023-06-22T06:03:13;13.52;;;10.32;;
483;SDS011;228;48.922;12.198;2023-06-22T06:05:42;10.20;;;8.93;;
483;SDS011;228;48.922;12.198;2023-06-22T06:08:09;10.70;;;9.45;;
483;SDS011;228;48.922;12.198;2023-06-22T06:10:36;12.00;;;9.38;;
483;SDS011;228;48.922;12.198;2023-06-22T06:13:02;10.35;;;9.25;;
483;SDS011;228;48.922;12.198;2023-06-22T06:15:30;10.38;;;8.85;;
483;SDS011;228;48.922;12.198;2023-06-22T06:17:57;11.30;;;8.82;;
483;SDS011;228;48.922;12.198;2023-06-22T06:20:24;11.85;;;8.98;;
483;SDS011;228;48.922;12.198;2023-06-22T06:22:53;10.43;;;8.98;;
483;SDS011;228;48.922;12.198;2023-06-22T06:25:19;10.90;;;8.57;;
483;SDS011;228;48.922;12.198;2023-06-22T06:27:45;11.63;;;8.45;;
483;SDS011;228;48.922;12.198;2023-06-22T06:30:12;10.65;;;8.57;;
483;SDS011;228;48.922;12.198;2023-06-22T06:32:40;10.40;;;8.52;;
483;SDS011;228;48.922;12.198;2023-06-22T06:35:07;9.30;;;8.30;;
483;SDS011;228;48.922;12.198;2023-06-22T06:37:36;10.10;;;7.65;;
483;SDS011;228;48.922;12.198;2023-06-22T06:40:07;9.45;;;7.53;;
483;SDS011;228;48.922;12.198;2023-06-22T06:42:37;9.13;;;7.65;;
483;SDS011;228;48.922;12.198;2023-06-22T06:45:06;8.50;;;6.40;;
483;SDS011;228;48.922;12.198;2023-06-22T06:47:33;9.13;;;6.10;;
483;SDS011;228;48.922;12.198;2023-06-22T06:49:59;6.72;;;6.03;;
483;SDS011;228;48.922;12.198;2023-06-22T06:52:25;8.13;;;6.15;;
483;SDS011;228;48.922;12.198;2023-06-22T06:54:52;7.57;;;6.28;;
483;SDS011;228;48.922;12.198;2023-06-22T06:57:18;5.80;;;5.10;;
483;SDS011;228;48.922;12.198;2023-06-22T06:59:45;6.07;;;4.80;;
483;SDS011;228;48.922;12.198;2023-06-22T07:02:11;6.63;;;4.53;;
483;SDS011;228;48.922;12.198;2023-06-22T07:04:38;6.85;;;4.70;;
483;SDS011;228;48.922;12.198;2023-06-22T07:07:04;8.85;;;4.93;;
483;SDS011;228;48.922;12.198;2023-06-22T07:09:30;10.93;;;5.40;;
483;SDS011;228;48.922;12.198;2023-06-22T07:11:56;7.10;;;5.28;;
483;SDS011;228;48.922;12.198;2023-06-22T07:14:22;6.15;;;5.35;;
483;SDS011;228;48.922;12.198;2023-06-22T07:16:49;5.25;;;4.75;;
483;SDS011;228;48.922;12.198;2023-06-22T07:19:15;5.22;;;4.68;;
483;SDS011;228;48.922;12.198;2023-06-22T07:21:41;6.95;;;4.68;;
483;SDS011;228;48.922;12.198;2023-06-22T07:24:08;7.53;;;4.68;;
483;SDS011;228;48.922;12.198;2023-06-22T07:26:34;8.55;;;5.15;;
483;SDS011;228;48.922;12.198;2023-06-22T07:29:00;8.25;;;5.63;;
483;SDS011;228;48.922;12.198;2023-06-22T07:31:26;8.38;;;5.65;;
483;SDS011;228;48.922;12.198;2023-06-22T07:33:52;7.15;;;5.63;;
483;SDS011;228;48.922;12.198;2023-06-22T07:36:18;8.70;;;5.32;;
483;SDS011;228;48.922;12.198;2023-06-22T07:38:44;9.23;;;5.97;;
483;SDS011;228;48.922;12.198;2023-06-22T07:41:10;7.05;;;5.95;;
483;SDS011;228;48.922;12.198;2023-06-22T07:43:36;9.13;;;6.28;;
483;SDS011;228;48.922;12.198;2023-06-22T07:46:02;6.20;;;5.60;;
483;SDS011;228;48.922;12.198;2023-06-22T07:48:29;9.05;;;5.53;;
483;SDS011;228;48.922;12.198;2023-06-22T07:50:55;8.38;;;5.68;;
483;SDS011;228;48.922;12.198;2023-06-22T07:53:21;8.93;;;5.38;;
483;SDS011;228;48.922;12.198;2023-06-22T07:55:48;9.10;;;5.18;;
483;SDS011;228;48.922;12.198;2023-06-22T07:58:15;7.85;;;5.72;;
483;SDS011;228;48.922;12.198;2023-06-22T08:00:44;7.10;;;5.55;;
483;SDS011;228;48.922;12.198;2023-06-22T08:03:10;8.77;;;5.60;;
483;SDS011;228;48.922;12.198;2023-06-22T08:05:36;7.78;;;5.82;;
483;SDS011;228;48.922;12.198;2023-06-22T08:08:02;7.63;;;5.40;;
483;SDS011;228;48.922;12.198;2023-06-22T08:10:28;8.57;;;6.00;;
483;SDS011;228;48.922;12.198;2023-06-22T08:12:54;7.90;;;6.13;;
483;SDS011;228;48.922;12.198;2023-06-22T08:15:20;7.65;;;5.85;;
483;SDS011;228;48.922;12.198;2023-06-22T08:17:47;6.43;;;5.25;;
483;SDS011;228;48.922;12.198;2023-06-22T08:20:13;7.03;;;5.22;;
483;SDS011;228;48.922;12.198;2023-06-22T08:22:43;7.80;;;5.25;;
483;SDS011;228;48.922;12.198;2023-06-22T08:25:09;6.70;;;5.40;;
483;SDS011;228;48.922;12.198;2023-06-22T08:27:36;8.40;;;6.20;;
483;SDS011;228;48.922;12.198;2023-06-22T08:30:02;7.30;;;5.57;;
483;SDS011;228;48.922;12.198;2023-06-22T08:32:29;8.90;;;5.30;;
483;SDS011;228;48.922;12.198;2023-06-22T08:34:56;7.93;;;5.45;;
483;SDS011;228;48.922;12.198;2023-06-22T08:37:22;7.80;;;5.20;;
483;SDS011;228;48.922;12.198;2023-06-22T08:39:50;7.47;;;5.13;;
483;SDS011;228;48.922;12.198;2023-06-22T08:42:16;6.40;;;5.57;;
483;SDS011;228;48.922;12.198;2023-06-22T08:44:42;6.32;;;5.15;;
483;SDS011;228;48.922;12.198;2023-06-22T08:47:08;6.10;;;4.95;;
483;SDS011;228;48.922;12.198;2023-06-22T08:49:34;7.40;;;4.85;;
483;SDS011;228;48.922;12.198;2023-06-22T08:52:00;7.85;;;4.95;;
483;SDS011;228;48.922;12.198;2023-06-22T08:54:26;13.48;;;5.30;;
483;SDS011;228;48.922;12.198;2023-06-22T08:56:52;8.20;;;4.78;;
483;SDS011;228;48.922;12.198;2023-06-22T08:59:18;6.20;;;4.95;;
483;SDS011;228;48.922;12.198;2023-06-22T09:01:44;5.35;;;4.72;;
483;SDS011;228;48.922;12.198;2023-06-22T09:04:11;6.70;;;5.55;;
483;SDS011;228;48.922;12.198;2023-06-22T09:06:37;6.68;;;4.60;;
483;SDS011;228;48.922;12.198;2023-06-22T09:09:09;6.85;;;4.97;;
483;SDS011;228;48.922;12.198;2023-06-22T09:11:37;8.20;;;5.07;;
483;SDS011;228;48.922;12.198;2023-06-22T09:14:03;11.27;;;5.20;;
483;SDS011;228;48.922;12.198;2023-06-22T09:16:29;7.00;;;5.57;;
483;SDS011;228;48.922;12.198;2023-06-22T09:18:55;7.88;;;5.50;;
483;SDS011;228;48.922;12.198;2023-06-22T09:21:23;6.50;;;5.10;;
483;SDS011;228;48.922;12.198;2023-06-22T09:23:49;9.18;;;5.20;;
483;SDS011;228;48.922;12.198;2023-06-22T09:26:17;7.15;;;5.10;;
483;SDS011;228;48.922;12.198;2023-06-22T09:28:43;8.13;;;5.43;;
483;SDS011;228;48.922;12.198;2023-06-22T09:31:10;6.25;;;5.57;;
483;SDS011;228;48.922;12.198;2023-06-22T09:33:36;8.43;;;5.65;;
483;SDS011;228;48.922;12.198;2023-06-22T09:36:05;7.30;;;5.50;;
483;SDS011;228;48.922;12.198;2023-06-22T09:38:38;8.95;;;6.28;;
483;SDS011;228;48.922;12.198;2023-06-22T09:41:05;7.93;;;5.50;;
483;SDS011;228;48.922;12.198;2023-06-22T09:43:31;5.85;;;5.20;;
483;SDS011;228;48.922;12.198;2023-06-22T09:46:00;7.22;;;5.00;;
483;SDS011;228;48.922;12.198;2023-06-22T09:48:27;6.80;;;5.43;;
483;SDS011;228;48.922;12.198;2023-06-22T09:50:55;7.50;;;5.57;;
483;SDS011;228;48.922;12.198;2023-06-22T09:53:21;8.88;;;5.22;;
483;SDS011;228;48.922;12.198;2023-06-22T09:55:47;7.32;;;5.40;;
483;SDS011;228;48.922;12.198;2023-06-22T09:58:13;9.10;;;5.47;;
483;SDS011;228;48.922;12.198;2023-06-22T10:00:39;9.27;;;5.95;;
483;SDS011;228;48.922;12.198;2023-06-22T10:03:06;8.77;;;5.75;;
483;SDS011;228;48.922;12.198;2023-06-22T10:05:33;6.53;;;5.50;;
483;SDS011;228;48.922;12.198;2023-06-22T10:07:59;9.98;;;5.63;;
483;SDS011;228;48.922;12.198;2023-06-22T10:10:25;6.72;;;5.80;;
483;SDS011;228;48.922;12.198;2023-06-22T10:12:57;8.40;;;5.70;;
483;SDS011;228;48.922;12.198;2023-06-22T10:15:33;7.57;;;5.75;;
483;SDS011;228;48.922;12.198;2023-06-22T10:17:59;7.07;;;5.88;;
483;SDS011;228;48.922;12.198;2023-06-22T10:20:25;7.93;;;5.80;;
483;SDS011;228;48.922;12.198;2023-06-22T10:22:51;10.70;;;5.93;;
483;SDS011;228;48.922;12.198;2023-06-22T10:25:17;7.95;;;5.95;;
483;SDS011;228;48.922;12.198;2023-06-22T10:27:44;9.88;;;6.88;;
483;SDS011;228;48.922;12.198;2023-06-22T10:30:10;7.47;;;5.93;;
483;SDS011;228;48.922;12.198;2023-06-22T10:32:41;9.07;;;6.18;;
483;SDS011;228;48.922;12.198;2023-06-22T10:35:08;8.45;;;5.70;;
483;SDS011;228;48.922;12.198;2023-06-22T10:37:41;7.47;;;5.70;;
483;SDS011;228;48.922;12.198;2023-06-22T10:40:09;6.57;;;5.30;;
483;SDS011;228;48.922;12.198;2023-06-22T10:42:37;8.30;;;6.20;;
483;SDS011;228;48.922;12.198;2023-06-22T10:45:03;7.97;;;6.38;;
483;SDS011;228;48.922;12.198;2023-06-22T10:47:29;7.18;;;6.18;;
483;SDS011;228;48.922;12.198;2023-06-22T10:49:55;9.27;;;5.80;;
483;SDS011;228;48.922;12.198;2023-06-22T10:52:21;8.57;;;6.43;;
483;SDS011;228;48.922;12.198;2023-06-22T10:54:47;8.80;;;6.00;;
483;SDS011;228;48.922;12.198;2023-06-22T10:57:13;9.95;;;5.93;;
483;SDS011;228;48.922;12.198;2023-06-22T10:59:39;9.70;;;5.80;;
483;SDS011;228;48.922;12.198;2023-06-22T11:02:05;6.75;;;5.70;;
483;SDS011;228;48.922;12.198;2023-06-22T11:04:31;10.40;;;5.65;;
483;SDS011;228;48.922;12.198;2023-06-22T11:06:58;9.30;;;5.72;;
483;SDS011;228;48.922;12.198;2023-06-22T11:09:23;6.53;;;5.53;;
483;SDS011;228;48.922;12.198;2023-06-22T11:11:51;7.20;;;5.72;;
483;SDS011;228;48.922;12.198;2023-06-22T11:14:20;8.98;;;5.78;;
483;SDS011;228;48.922;12.198;2023-06-22T11:16:47;9.63;;;5.68;;
483;SDS011;228;48.922;12.198;2023-06-22T11:19:13;7.95;;;5.70;;
483;SDS011;228;48.922;12.198;2023-06-22T11:21:39;7.93;;;5.53;;
483;SDS011;228;48.922;12.198;2023-06-22T11:24:05;10.45;;;5.95;;
483;SDS011;228;48.922;12.198;2023-06-22T11:26:31;7.82;;;5.65;;
483;SDS011;228;48.922;12.198;2023-06-22T11:28:58;10.65;;;6.13;;
483;SDS011;228;48.922;12.198;2023-06-22T11:31:24;5.65;;;5.07;;
483;SDS011;228;48.922;12.198;2023-06-22T11:33:51;8.82;;;5.75;;
483;SDS011;228;48.922;12.198;2023-06-22T11:36:17;8.15;;;5.85;;
483;SDS011;228;48.922;12.198;2023-06-22T11:38:43;10.93;;;5.70;;
483;SDS011;228;48.922;12.198;2023-06-22T11:41:09;8.45;;;6.05;;
483;SDS011;228;48.922;12.198;2023-06-22T11:43:36;8.27;;;6.20;;
483;SDS011;228;48.922;12.198;2023-06-22T11:46:03;8.38;;;5.93;;
483;SDS011;228;48.922;12.198;2023-06-22T11:48:29;7.65;;;5.68;;
483;SDS011;228;48.922;12.198;2023-06-22T11:50:55;7.93;;;5.68;;
483;SDS011;228;48.922;12.198;2023-06-22T11:53:23;7.55;;;5.50;;
483;SDS011;228;48.922;12.198;2023-06-22T11:55:51;11.50;;;6.32;;
483;SDS011;228;48.922;12.198;2023-06-22T11:58:19;6.97;;;5.90;;
483;SDS011;228;48.922;12.198;2023-06-22T12:00:45;11.05;;;5.80;;
483;SDS011;228;48.922;12.198;2023-06-22T12:03:11;8.77;;;6.15;;
483;SDS011;228;48.922;12.198;2023-06-22T12:05:37;9.90;;;6.30;;
483;SDS011;228;48.922;12.198;2023-06-22T12:08:04;7.65;;;6.32;;
483;SDS011;228;48.922;12.198;2023-06-22T12:10:30;9.52;;;6.28;;
483;SDS011;228;48.922;12.198;2023-06-22T12:12:56;9.43;;;5.60;;
483;SDS011;228;48.922;12.198;2023-06-22T12:15:23;8.00;;;6.35;;
483;SDS011;228;48.922;12.198;2023-06-22T12:17:49;7.70;;;5.70;;
483;SDS011;228;48.922;12.198;2023-06-22T12:20:15;6.70;;;5.25;;
483;SDS011;228;48.922;12.198;2023-06-22T12:22:42;7.60;;;5.80;;
483;SDS011;228;48.922;12.198;2023-06-22T12:25:08;8.32;;;6.25;;
483;SDS011;228;48.922;12.198;2023-06-22T12:27:35;8.65;;;6.13;;
483;SDS011;228;48.922;12.198;2023-06-22T12:30:02;6.40;;;5.72;;
483;SDS011;228;48.922;12.198;2023-06-22T12:32:30;7.90;;;5.90;;
483;SDS011;228;48.922;12.198;2023-06-22T12:34:56;7.18;;;6.03;;
483;SDS011;228;48.922;12.198;2023-06-22T12:37:22;7.00;;;6.20;;
483;SDS011;228;48.922;12.198;2023-06-22T12:39:49;6.88;;;5.68;;
483;SDS011;228;48.922;12.198;2023-06-22T12:42:15;6.82;;;5.38;;
483;SDS011;228;48.922;12.198;2023-06-22T12:44:42;9.18;;;5.95;;
483;SDS011;228;48.922;12.198;2023-06-22T12:47:08;8.52;;;5.85;;
483;SDS011;228;48.922;12.198;2023-06-22T12:49:35;7.82;;;6.10;;
483;SDS011;228;48.922;12.198;2023-06-22T12:52:01;9.50;;;6.22;;
483;SDS011;228;48.922;12.198;2023-06-22T12:54:28;9.80;;;5.88;;
483;SDS011;228;48.922;12.198;2023-06-22T12:56:55;9.75;;;5.70;;
483;SDS011;228;48.922;12.198;2023-06-22T12:59:21;10.43;;;5.97;;
483;SDS011;228;48.922;12.198;2023-06-22T13:01:48;8.70;;;5.60;;
483;SDS011;228;48.922;12.198;2023-06-22T13:04:14;9.40;;;5.88;;
483;SDS011;228;48.922;12.198;2023-06-22T13:06:40;10.32;;;5.78;;
483;SDS011;228;48.922;12.198;2023-06-22T13:09:09;12.52;;;6.32;;
483;SDS011;228;48.922;12.198;2023-06-22T13:11:35;9.77;;;5.72;;
483;SDS011;228;48.922;12.198;2023-06-22T13:14:01;10.57;;;6.35;;
483;SDS011;228;48.922;12.198;2023-06-22T13:16:28;10.50;;;5.53;;
483;SDS011;228;48.922;12.198;2023-06-22T13:18:54;11.73;;;5.70;;
483;SDS011;228;48.922;12.198;2023-06-22T13:21:19;8.30;;;5.50;;
483;SDS011;228;48.922;12.198;2023-06-22T13:23:45;8.18;;;5.88;;
483;SDS011;228;48.922;12.198;2023-06-22T13:26:11;7.22;;;5.80;;
483;SDS011;228;48.922;12.198;2023-06-22T13:28:38;9.75;;;5.65;;
483;SDS011;228;48.922;12.198;2023-06-22T13:31:04;6.70;;;5.43;;
483;SDS011;228;48.922;12.198;2023-06-22T13:33:30;8.15;;;6.15;;
483;SDS011;228;48.922;12.198;2023-06-22T13:35:56;10.70;;;5.50;;
483;SDS011;228;48.922;12.198;2023-06-22T13:38:23;7.90;;;5.80;;
483;SDS011;228;48.922;12.198;2023-06-22T13:40:49;10.50;;;5.63;;
483;SDS011;228;48.922;12.198;2023-06-22T13:43:15;9.13;;;5.80;;
483;SDS011;228;48.922;12.198;2023-06-22T13:45:42;10.15;;;5.70;;
483;SDS011;228;48.922;12.198;2023-06-22T13:48:08;11.85;;;5.50;;
483;SDS011;228;48.922;12.198;2023-06-22T13:50:35;10.95;;;5.80;;
483;SDS011;228;48.922;12.198;2023-06-22T13:53:01;7.90;;;5.78;;
483;SDS011;228;48.922;12.198;2023-06-22T13:55:27;7.47;;;5.75;;
483;SDS011;228;48.922;12.198;2023-06-22T13:57:53;7.35;;;5.57;;
483;SDS011;228;48.922;12.198;2023-06-22T14:00:19;8.52;;;5.80;;
483;SDS011;228;48.922;12.198;2023-06-22T14:02:45;6.47;;;5.40;;
483;SDS011;228;48.922;12.198;2023-06-22T14:05:11;6.90;;;5.55;;
483;SDS011;228;48.922;12.198;2023-06-22T14:07:37;7.72;;;5.82;;
483;SDS011;228;48.922;12.198;2023-06-22T14:10:03;7.88;;;5.80;;
483;SDS011;228;48.922;12.198;2023-06-22T14:12:30;10.02;;;5.90;;
483;SDS011;228;48.922;12.198;2023-06-22T14:14:56;9.23;;;5.35;;
483;SDS011;228;48.922;12.198;2023-06-22T14:17:22;10.20;;;5.22;;
483;SDS011;228;48.922;12.198;2023-06-22T14:19:51;9.55;;;5.57;;
483;SDS011;228;48.922;12.198;2023-06-22T14:22:18;10.45;;;5.85;;
483;SDS011;228;48.922;12.198;2023-06-22T14:24:45;7.85;;;5.20;;
483;SDS011;228;48.922;12.198;2023-06-22T14:27:12;9.38;;;5.47;;
483;SDS011;228;48.922;12.198;2023-06-22T14:29:39;8.23;;;5.13;;
483;SDS011;228;48.922;12.198;2023-06-22T14:32:05;11.13;;;5.22;;
483;SDS011;228;48.922;12.198;2023-06-22T14:34:32;8.00;;;4.95;;
483;SDS011;228;48.922;12.198;2023-06-22T14:37:01;7.60;;;4.80;;
483;SDS011;228;48.922;12.198;2023-06-22T14:39:28;15.80;;;5.72;;
483;SDS011;228;48.922;12.198;2023-06-22T14:41:54;10.13;;;5.70;;
483;SDS011;228;48.922;12.198;2023-06-22T14:44:20;10.32;;;5.43;;
483;SDS011;228;48.922;12.198;2023-06-22T14:46:46;14.10;;;5.43;;
483;SDS011;228;48.922;12.198;2023-06-22T14:49:12;8.50;;;5.35;;
483;SDS011;228;48.922;12.198;2023-06-22T14:51:38;10.02;;;5.93;;
483;SDS011;228;48.922;12.198;2023-06-22T14:54:04;9.80;;;5.75;;
483;SDS011;228;48.922;12.198;2023-06-22T14:56:31;8.43;;;5.40;;
483;SDS011;228;48.922;12.198;2023-06-22T14:58:56;13.60;;;6.50;;
483;SDS011;228;48.922;12.198;2023-06-22T15:01:22;18.02;;;6.30;;
483;SDS011;228;48.922;12.198;2023-06-22T15:03:48;11.20;;;5.38;;
483;SDS011;228;48.922;12.198;2023-06-22T15:06:14;12.60;;;5.70;;
483;SDS011;228;48.922;12.198;2023-06-22T15:08:41;9.65;;;5.85;;
483;SDS011;228;48.922;12.198;2023-06-22T15:11:07;10.57;;;5.80;;
483;SDS011;228;48.922;12.198;2023-06-22T15:13:34;9.50;;;5.55;;
483;SDS011;228;48.922;12.198;2023-06-22T15:16:01;8.45;;;5.75;;
483;SDS011;228;48.922;12.198;2023-06-22T15:18:31;9.98;;;5.80;;
483;SDS011;228;48.922;12.198;2023-06-22T15:21:01;9.20;;;6.07;;
483;SDS011;228;48.922;12.198;2023-06-22T15:23:28;6.97;;;5.75;;
483;SDS011;228;48.922;12.198;2023-06-22T15:25:55;8.60;;;6.13;;
483;SDS011;228;48.922;12.198;2023-06-22T15:28:22;10.48;;;6.38;;
483;SDS011;228;48.922;12.198;2023-06-22T15:30:49;11.73;;;6.10;;
483;SDS011;228;48.922;12.198;2023-06-22T15:33:18;8.68;;;5.72;;
483;SDS011;228;48.922;12.198;2023-06-22T15:35:45;11.85;;;5.65;;
483;SDS011;228;48.922;12.198;2023-06-22T15:38:11;12.45;;;6.13;;
483;SDS011;228;48.922;12.198;2023-06-22T15:40:38;11.57;;;6.00;;
483;SDS011;228;48.922;12.198;2023-06-22T15:43:04;10.00;;;6.50;;
483;SDS011;228;48.922;12.198;2023-06-22T15:45:30;10.43;;;5.70;;
483;SDS011;228;48.922;12.198;2023-06-22T15:47:56;12.45;;;5.65;;
483;SDS011;228;48.922;12.198;2023-06-22T15:50:22;8.40;;;5.82;;
483;SDS011;228;48.922;12.198;2023-06-22T15:52:48;8.25;;;5.95;;
483;SDS011;228;48.922;12.198;2023-06-22T15:55:16;11.70;;;6.32;;
483;SDS011;228;48.922;12.198;2023-06-22T15:57:45;8.75;;;6.18;;
483;SDS011;228;48.922;12.198;2023-06-22T16:00:15;11.88;;;6.32;;
483;SDS011;228;48.922;12.198;2023-06-22T16:02:43;11.18;;;6.05;;
483;SDS011;228;48.922;12.198;2023-06-22T16:05:11;9.65;;;6.38;;
483;SDS011;228;48.922;12.198;2023-06-22T16:07:37;11.65;;;6.28;;
483;SDS011;228;48.922;12.198;2023-06-22T16:10:03;13.30;;;7.05;;
483;SDS011;228;48.922;12.198;2023-06-22T16:12:33;12.20;;;5.97;;
483;SDS011;228;48.922;12.198;2023-06-22T16:15:00;10.20;;;5.90;;
483;SDS011;228;48.922;12.198;2023-06-22T16:17:28;9.18;;;5.75;;
483;SDS011;228;48.922;12.198;2023-06-22T16:19:54;12.73;;;6.05;;
483;SDS011;228;48.922;12.198;2023-06-22T16:22:21;11.52;;;6.07;;
483;SDS011;228;48.922;12.198;2023-06-22T16:24:47;9.60;;;6.18;;
483;SDS011;228;48.922;12.198;2023-06-22T16:27:14;12.32;;;6.13;;
483;SDS011;228;48.922;12.198;2023-06-22T16:29:40;9.57;;;5.72;;
483;SDS011;228;48.922;12.198;2023-06-22T16:32:07;11.98;;;6.70;;
483;SDS011;228;48.922;12.198;2023-06-22T16:34:33;9.88;;;5.97;;
483;SDS011;228;48.922;12.198;2023-06-22T16:37:00;13.63;;;6.18;;
483;SDS011;228;48.922;12.198;2023-06-22T16:39:27;10.70;;;6.15;;
483;SDS011;228;48.922;12.198;2023-06-22T16:41:53;10.40;;;5.88;;
483;SDS011;228;48.922;12.198;2023-06-22T16:44:19;14.07;;;6.45;;
483;SDS011;228;48.922;12.198;2023-06-22T16:46:45;10.25;;;6.00;;
483;SDS011;228;48.922;12.198;2023-06-22T16:49:11;11.13;;;5.95;;
483;SDS011;228;48.922;12.198;2023-06-22T16:51:41;12.73;;;5.95;;
483;SDS011;228;48.922;12.198;2023-06-22T16:54:07;7.65;;;5.65;;
483;SDS011;228;48.922;12.198;2023-06-22T16:56:34;14.35;;;6.88;;
483;SDS011;228;48.922;12.198;2023-06-22T16:59:00;9.45;;;5.88;;
483;SDS011;228;48.922;12.198;2023-06-22T17:01:26;8.88;;;5.85;;
483;SDS011;228;48.922;12.198;2023-06-22T17:03:56;10.95;;;5.95;;
483;SDS011;228;48.922;12.198;2023-06-22T17:06:41;9.98;;;5.57;;
483;SDS011;228;48.922;12.198;2023-06-22T17:09:11;10.10;;;5.90;;
483;SDS011;228;48.922;12.198;2023-06-22T17:11:39;10.98;;;6.40;;
483;SDS011;228;48.922;12.198;2023-06-22T17:14:06;9.38;;;5.75;;
483;SDS011;228;48.922;12.198;2023-06-22T17:16:32;9.48;;;5.45;;
483;SDS011;228;48.922;12.198;2023-06-22T17:19:00;10.57;;;5.45;;
483;SDS011;228;48.922;12.198;2023-06-22T17:21:31;15.18;;;5.85;;
483;SDS011;228;48.922;12.198;2023-06-22T17:24:00;10.43;;;5.97;;
483;SDS011;228;48.922;12.198;2023-06-22T17:26:26;13.13;;;5.85;;
483;SDS011;228;48.922;12.198;2023-06-22T17:28:53;7.80;;;5.10;;
483;SDS011;228;48.922;12.198;2023-06-22T17:31:35;10.52;;;5.25;;
483;SDS011;228;48.922;12.198;2023-06-22T17:34:37;7.43;;;5.10;;
483;SDS011;228;48.922;12.198;2023-06-22T17:36:57;13.02;;;5.72;;
483;SDS011;228;48.922;12.198;2023-06-22T17:39:25;10.85;;;5.30;;
483;SDS011;228;48.922;12.198;2023-06-22T17:41:53;10.63;;;6.28;;
483;SDS011;228;48.922;12.198;2023-06-22T17:44:22;8.00;;;5.55;;
483;SDS011;228;48.922;12.198;2023-06-22T17:46:53;11.15;;;5.50;;
483;SDS011;228;48.922;12.198;2023-06-22T17:49:29;8.40;;;5.47;;
483;SDS011;228;48.922;12.198;2023-06-22T17:52:00;10.20;;;5.40;;
483;SDS011;228;48.922;12.198;2023-06-22T17:54:30;12.88;;;5.78;;
483;SDS011;228;48.922;12.198;2023-06-22T17:56:56;9.88;;;5.82;;
483;SDS011;228;48.922;12.198;2023-06-22T17:59:23;10.07;;;5.60;;
483;SDS011;228;48.922;12.198;2023-06-22T18:01:49;10.23;;;5.95;;
483;SDS011;228;48.922;12.198;2023-06-22T18:04:16;8.65;;;5.63;;
483;SDS011;228;48.922;12.198;2023-06-22T18:06:45;11.63;;;6.20;;
483;SDS011;228;48.922;12.198;2023-06-22T18:09:22;47.83;;;41.13;;
483;SDS011;228;48.922;12.198;2023-06-22T18:11:49;14.95;;;12.70;;
483;SDS011;228;48.922;12.198;2023-06-22T18:14:16;11.23;;;6.65;;
483;SDS011;228;48.922;12.198;2023-06-22T18:16:45;10.35;;;6.15;;
483;SDS011;228;48.922;12.198;2023-06-22T18:19:14;15.23;;;6.65;;
483;SDS011;228;48.922;12.198;2023-06-22T18:21:44;15.45;;;6.20;;
483;SDS011;228;48.922;12.198;2023-06-22T18:24:13;10.00;;;5.60;;
483;SDS011;228;48.922;12.198;2023-06-22T18:26:40;10.40;;;5.90;;
483;SDS011;228;48.922;12.198;2023-06-22T18:29:08;10.52;;;5.78;;
483;SDS011;228;48.922;12.198;2023-06-22T18:31:34;9.60;;;5.88;;
483;SDS011;228;48.922;12.198;2023-06-22T18:34:02;11.63;;;5.53;;
483;SDS011;228;48.922;12.198;2023-06-22T18:36:29;11.32;;;6.30;;
483;SDS011;228;48.922;12.198;2023-06-22T18:39:10;12.80;;;5.82;;
483;SDS011;228;48.922;12.198;2023-06-22T18:41:39;9.60;;;5.88;;
483;SDS011;228;48.922;12.198;2023-06-22T18:44:50;9.98;;;6.30;;
483;SDS011;228;48.922;12.198;2023-06-22T18:47:06;14.77;;;6.30;;
483;SDS011;228;48.922;12.198;2023-06-22T18:49:44;11.40;;;6.13;;
483;SDS011;228;48.922;12.198;2023-06-22T18:52:18;12.05;;;6.57;;
483;SDS011;228;48.922;12.198;2023-06-22T18:54:50;10.65;;;6.35;;
483;SDS011;228;48.922;12.198;2023-06-22T18:57:21;19.55;;;6.28;;
483;SDS011;228;48.922;12.198;2023-06-22T18:59:50;12.82;;;6.50;;
483;SDS011;228;48.922;12.198;2023-06-22T19:10:22;17.45;;;6.28;;
483;SDS011;228;48.922;12.198;2023-06-22T19:15:41;13.35;;;6.93;;
483;SDS011;228;48.922;12.198;2023-06-22T19:18:15;12.30;;;6.13;;
483;SDS011;228;48.922;12.198;2023-06-22T19:20:47;14.98;;;6.97;;
483;SDS011;228;48.922;12.198;2023-06-22T19:23:30;14.02;;;6.70;;
483;SDS011;228;48.922;12.198;2023-06-22T19:26:02;15.77;;;6.85;;
483;SDS011;228;48.922;12.198;2023-06-22T19:28:49;13.75;;;6.85;;
483;SDS011;228;48.922;12.198;2023-06-22T19:31:18;23.33;;;7.22;;
483;SDS011;228;48.922;12.198;2023-06-22T19:33:46;14.60;;;6.65;;